Latest Coastal Weather Observations for Broome

IDW60701

Issued at 6:15 am WST Monday 22 September 2014 (issued every 10 minutes, with the page automatically refreshed every 10 minutes)

About coastal observations | Map of coastal stations | Coastal observations for WA | Marine services | Other Formats
Station Details ID: 003003 Name: BROOME AIRPORT Lat: -17.95 Lon: 122.24 Height: 7.42 m
Data from the previous 72 hours. | See also: Recent months at Broome
Date/Time
WST
Temp

°C
Wind Pressure Rain
since 9am
mm
Weather Cloud Vis
km
Sea
Height
m
Swell
Dir
 
Speed
knots
Gust
knots
hPa Trend Height
m
Period
s
Dir
22/06:00am 24.2 WSW 6 8 1013.1 R 0.0 Haze Mostly clear 25 - - - -
22/05:30am 23.9 WSW 6 8 1012.7 - 0.0 - - 10 - - - -
22/05:00am 23.9 WSW 5 6 1012.3 - 0.0 - - 10 - - - -
22/04:30am 23.9 WSW 6 8 1011.9 - 0.0 - - 10 - - - -
22/04:00am 23.1 WSW 2 4 1011.7 - 0.0 - - 10 - - - -
22/03:30am 23.1 W 3 7 1011.5 - 0.0 - - 10 - - - -
22/03:00am 23.7 SSW 5 6 1011.3 - 0.0 - - 10 - - - -
22/02:30am 21.3 N 3 4 1011.6 - 0.0 - - 10 - - - -
22/02:00am 22.9 SW 2 5 1011.6 - 0.0 - - 10 - - - -
22/01:30am 23.6 N 4 7 1011.8 - 0.0 - - 10 - - - -
22/01:00am 24.6 W 4 7 1011.7 - 0.0 - - 10 - - - -
22/12:30am 25.7 WSW 5 9 1012.0 - 0.0 - - 10 - - - -
22/12:00am 25.0 WSW 8 11 1012.0 - 0.0 - - 10 - - - -
 
Date/Time
WST
Temp

°C
Wind Pressure Rain
since 9am
mm
Weather Cloud Vis
km
Sea
Height
m
Swell
Dir
 
Speed
knots
Gust
knots
hPa Trend Height
m
Period
s
Dir
21/11:30pm 25.0 SW 6 8 1012.6 - 0.0 - - 10 - - - -
21/11:00pm 25.6 SW 5 7 1013.0 - 0.0 - - 10 - - - -
21/10:30pm 25.8 SW 7 8 1013.0 - 0.0 - - 10 - - - -
21/10:00pm 25.7 SSW 5 6 1013.3 - 0.0 - - 10 - - - -
21/09:30pm 25.7 SW 4 5 1013.4 - 0.0 - - 10 - - - -
21/09:00pm 26.2 WSW 5 8 1013.2 R 0.0 Haze Partly cloudy 20 - - - -
21/08:30pm 26.2 WSW 8 11 1012.9 - 0.0 - - 10 - - - -
21/08:00pm 26.5 WSW 9 13 1012.7 - 0.0 - - 10 - - - -
21/07:30pm 26.8 WSW 10 13 1012.3 - 0.0 - - 10 - - - -
21/07:00pm 26.9 WSW 10 16 1012.0 - 0.0 - - 10 - - - -
21/06:30pm 26.7 WSW 10 14 1011.9 - 0.0 - - 10 - - - -
21/06:00pm 27.1 WSW 11 19 1011.3 F 0.0 Haze Partly cloudy 25 - - - -
21/05:30pm 27.7 WSW 12 18 1011.0 - 0.0 - - 10 - - - -
21/05:00pm 29.0 WSW 12 19 1010.7 - 0.0 - - 10 - - - -
21/04:30pm 28.9 WSW 12 16 1010.6 - 0.0 - - 10 - - - -
21/04:00pm 30.5 WSW 10 15 1010.9 - 0.0 - - 10 - - - -
21/03:30pm 30.4 WSW 11 15 1011.1 - 0.0 - - 10 - - - -
21/03:00pm 29.8 WSW 11 16 1011.1 R 0.0 Haze Mostly clear 25 - - - -
21/02:30pm 30.0 WSW 14 19 1011.2 - 0.0 - - 10 - - - -
21/02:00pm 29.5 WSW 13 17 1011.5 - 0.0 - - 10 - - - -
21/01:30pm 29.5 W 12 16 1011.9 - 0.0 - - 10 - - - -
21/01:00pm 29.7 W 12 15 1012.2 - 0.0 - - 10 - - - -
21/12:30pm 29.9 W 11 15 1012.5 - 0.0 - - 10 - - - -
21/12:00pm 29.7 W 11 14 1012.9 S 0.0 Haze Clear 25 - - - -
21/11:30am 29.8 W 10 13 1013.4 - 0.0 - - 10 - - - -
21/11:00am 29.4 W 11 16 1013.9 - 0.0 - - 10 - - - -
21/10:30am 29.6 W 10 13 1014.5 - 0.0 - - 10 - - - -
21/10:00am 29.0 W 9 15 1014.7 - 0.0 - - 10 - - - -
21/09:30am 29.4 W 9 13 1014.8 - 0.0 - - 10 - - - -
21/09:00am 29.2 SW 10 15 1014.7 R 0.0 Haze Mostly clear 25 - - - -
21/08:30am 29.2 SW 8 11 1015.0 - 0.0 - - 10 - - - -
21/08:00am 28.0 SW 11 17 1014.6 - 0.0 - - 10 - - - -
21/07:30am 27.2 WSW 9 15 1014.2 - 0.0 - - 10 - - - -
21/07:00am 26.4 SW 9 12 1013.7 - 0.0 - - 10 - - - -
21/06:30am 25.5 WSW 7 11 1013.5 - 0.0 - - 10 - - - -
21/06:00am 24.6 WSW 7 10 1012.8 F 0.0 Haze Mostly clear 20 - - - -
21/05:30am 24.3 W 6 8 1012.7 - 0.0 - - 10 - - - -
21/05:00am 23.9 W 7 9 1012.6 - 0.0 - - 10 - - - -
21/04:30am 23.8 WSW 7 10 1012.3 - 0.0 - - 10 - - - -
21/04:00am 24.0 WSW 5 7 1012.3 - 0.0 - - 10 - - - -
21/03:30am 24.2 W 5 9 1011.8 - 0.0 - - 10 - - - -
21/03:00am 24.1 W 4 6 1011.9 - 0.0 - - 10 - - - -
21/02:30am 24.4 W 6 8 1012.0 - 0.0 - - 10 - - - -
21/02:00am 24.0 WSW 6 8 1012.1 - 0.0 - - 10 - - - -
21/01:30am 23.7 W 5 8 1012.4 - 0.0 - - 10 - - - -
21/01:00am 22.9 W 4 6 1012.5 - 0.0 - - 10 - - - -
21/12:30am 22.1 WNW 4 5 1012.8 - 0.0 - - 10 - - - -
21/12:00am 21.6 W 1 5 1013.1 - 0.0 - - 10 - - - -
 
Date/Time
WST
Temp

°C
Wind Pressure Rain
since 9am
mm
Weather Cloud Vis
km
Sea
Height
m
Swell
Dir
 
Speed
knots
Gust
knots
hPa Trend Height
m
Period
s
Dir
20/11:30pm 23.6 WNW 5 6 1013.5 - 0.0 - - 10 - - - -
20/11:00pm 24.4 W 4 5 1013.6 - 0.0 - - 10 - - - -
20/10:30pm 21.8 CALM 0 6 1013.8 - 0.0 - - 10 - - - -
20/10:00pm 24.1 W 4 6 1014.0 - 0.0 - - 10 - - - -
20/09:30pm 24.1 NW 4 6 1014.2 - 0.0 - - 10 - - - -
20/09:00pm 24.6 NW 4 8 1014.0 R 0.0 Haze Clear 20 - - - -
20/08:30pm 24.3 CALM 0 1 1013.9 - 0.0 - - 10 - - - -
20/08:00pm 24.7 NW 5 7 1013.6 - 0.0 - - 10 - - - -
20/07:30pm 24.7 NW 4 5 1013.2 - 0.0 - - 10 - - - -
20/07:00pm 25.3 NW 4 6 1012.9 - 0.0 - - 10 - - - -
20/06:30pm 25.5 WNW 6 8 1012.2 - 0.0 - - 10 - - - -
20/06:00pm 25.9 WNW 6 9 1011.9 R 0.0 Haze Mostly clear 20 - - - -
20/05:30pm 26.4 W 8 11 1011.6 - 0.0 - - 10 - - - -
20/05:00pm 27.1 W 10 14 1011.1 - 0.0 - - 10 - - - -
20/04:30pm 27.7 W 11 16 1010.9 - 0.0 - - 10 - - - -
20/04:00pm 28.2 W 12 17 1010.8 - 0.0 - - 10 - - - -
20/03:30pm 28.4 WNW 13 18 1010.7 - 0.0 - - 10 - - - -
20/03:00pm 28.8 W 14 19 1010.5 F 0.0 Haze Mostly clear 25 - - - -
20/02:30pm 28.3 W 17 22 1010.5 - 0.0 - - 10 - - - -
20/02:00pm 29.4 WNW 15 21 1010.9 - 0.0 - - 10 - - - -
20/01:30pm 28.8 WNW 14 21 1011.2 - 0.0 - - 10 - - - -
20/01:00pm 28.7 WNW 16 20 1011.8 - 0.0 - - 10 - - - -
20/12:30pm 29.7 WNW 14 18 1012.3 - 0.0 - - 10 - - - -
20/12:00pm 30.2 WNW 13 17 1012.8 R 0.0 Haze Clear 25 - - - -
20/11:30am 29.0 WNW 12 17 1013.6 - 0.0 - - 10 - - - -
20/11:00am 29.6 WNW 9 13 1013.9 - 0.0 - - 10 - - - -
20/10:30am 31.2 NNW 3 6 1014.4 - 0.0 - - 10 - - - -
20/10:00am 29.0 E 5 8 1014.9 - 0.0 - - 10 - - - -
20/09:30am 27.9 S 11 15 1014.5 - 0.0 - - 10 - - - -
20/09:00am 27.8 S 11 16 1014.3 F 0.0 Haze Clear 25 - - - -
20/08:30am 27.2 S 12 16 1014.6 - 0.0 - - 10 - - - -
20/08:00am 27.0 S 8 12 1014.6 - 0.0 - - 10 - - - -
20/07:30am 26.7 SSW 10 14 1014.3 - 0.0 - - 10 - - - -
20/07:00am 25.5 SSW 8 11 1014.0 - 0.0 - - 10 - - - -
20/06:30am 23.7 SW 5 7 1013.9 - 0.0 - - 10 - - - -
20/06:00am 20.5 N 5 7 1013.6 F 0.0 Haze Clear 15 - - - -
20/05:30am 22.5 SSW 5 8 1013.3 - 0.0 - - 10 - - - -
20/05:00am 20.6 NNE 1 5 1013.2 - 0.0 - - 10 - - - -
20/04:30am 23.5 SSW 6 7 1012.9 - 0.0 - - 10 - - - -
20/04:00am 22.1 SSW 2 5 1012.9 - 0.0 - - 10 - - - -
20/03:30am 22.7 SW 4 7 1012.6 - 0.0 - - 10 - - - -
20/03:00am 23.2 WSW 3 5 1012.7 - 0.0 - - 10 - - - -
20/02:30am 24.2 SW 5 7 1012.7 - 0.0 - - 10 - - - -
20/02:00am 24.3 WSW 6 9 1012.8 - 0.0 - - 10 - - - -
20/01:30am 24.3 W 6 8 1013.3 - 0.0 - - 10 - - - -
20/01:00am 24.2 WNW 3 6 1013.7 - 0.0 - - 10 - - - -
20/12:30am 23.8 WNW 2 5 1014.1 - 0.0 - - 10 - - - -
20/12:00am 24.4 NW 5 7 1014.4 - 0.0 - - 10 - - - -
 
Date/Time
WST
Temp

°C
Wind Pressure Rain
since 9am
mm
Weather Cloud Vis
km
Sea
Height
m
Swell
Dir
 
Speed
knots
Gust
knots
hPa Trend Height
m
Period
s
Dir
19/11:30pm 24.5 WNW 6 7 1014.5 - 0.0 - - 10 - - - -
19/11:00pm 24.8 WNW 6 8 1014.7 - 0.0 - - 10 - - - -
19/10:30pm 24.8 NW 5 7 1015.0 - 0.0 - - 10 - - - -
19/10:00pm 25.0 WNW 7 8 1014.8 - 0.0 - - 10 - - - -
19/09:30pm 25.2 WNW 6 8 1015.0 - 0.0 - - 10 - - - -
19/09:00pm 25.3 NW 7 10 1014.9 R 0.0 Haze Mostly clear 25 - - - -
19/08:30pm 25.3 NW 7 9 1014.9 - 0.0 - - 10 - - - -
19/08:00pm 25.5 NW 8 11 1014.6 - 0.0 - - 10 - - - -
19/07:30pm 25.5 NW 7 9 1014.4 - 0.0 - - 10 - - - -
19/07:00pm 25.6 NW 6 8 1013.9 - 0.0 - - 10 - - - -
19/06:30pm 26.0 WNW 7 10 1013.6 - 0.0 - - 10 - - - -
19/06:00pm 26.3 W 7 11 1012.9 S 0.0 Haze Mostly clear 25 - - - -
19/05:30pm 27.1 W 10 14 1012.4 - 0.0 - - 10 - - - -
19/05:00pm 28.2 W 12 16 1012.2 - 0.0 - - 10 - - - -
19/04:30pm 29.0 W 12 16 1012.0 - 0.0 - - 10 - - - -
19/04:00pm 29.3 W 12 17 1011.8 - 0.0 - - 10 - - - -
19/03:30pm 29.5 W 12 17 1011.8 - 0.0 - - 10 - - - -
19/03:00pm 30.2 W 11 17 1012.0 F 0.0 Haze Mostly clear 30 - - - -
19/02:30pm 31.2 W 11 14 1012.3 - 0.0 - - 10 - - - -
19/02:00pm 32.2 WSW 9 14 1012.6 - 0.0 - - 10 - - - -
19/01:30pm 32.4 W 11 13 1013.0 - 0.0 - - 10 - - - -
19/01:00pm 31.5 W 9 12 1013.5 - 0.0 - - 10 - - - -
19/12:30pm 31.5 W 8 11 1013.9 - 0.0 - - 10 - - - -
19/12:00pm 30.4 W 8 11 1014.2 R 0.0 Haze Mostly clear 30 - - - -
19/11:30am 29.7 W 9 12 1014.7 - 0.0 - - 10 - - - -
19/11:00am 29.9 W 8 11 1015.2 - 0.0 - - 10 - - - -
19/10:30am 30.3 W 7 10 1015.6 - 0.0 - - 10 - - - -
19/10:00am 30.3 SSW 5 8 1015.7 - 0.0 - - 10 - - - -
19/09:30am 29.4 SSW 6 10 1015.9 - 0.0 - - 10 - - - -
19/09:00am 29.1 SW 8 12 1015.9 R 0.0 Haze Mostly clear 30 - - - -
19/08:30am 28.3 SW 9 12 1015.9 - 0.0 - - 10 - - - -
19/08:00am 27.5 SW 8 13 1016.0 - 0.0 - - 10 - - - -
19/07:30am 26.3 SW 10 14 1015.6 - 0.0 - - 10 - - - -
19/07:00am 24.7 SW 6 9 1015.2 - 0.0 - - 10 - - - -
19/06:30am 19.8 CALM 0 0 1014.9 - 0.0 - - 10 - - - -

Other Formats:

Comma delimited format used in spreadsheet applications
http://www.bom.gov.au/fwo/IDW60701/IDW60701.94203.axf

JavaScript Object Notation format (JSON) in row-major order
http://www.bom.gov.au/fwo/IDW60701/IDW60701.94203.json